createdAt,value
2023-04-24T00:01:59.799Z,97772.47
2023-04-24T00:04:27.458Z,97764.59
2023-04-24T00:06:58.596Z,97770.94
2023-04-24T00:09:25.524Z,97770.31
2023-04-24T00:11:52.430Z,97758.59
2023-04-24T00:14:19.330Z,97763.69
2023-04-24T00:16:46.267Z,97762.88
2023-04-24T00:19:14.103Z,97758.06
2023-04-24T00:21:42.263Z,97753.16
2023-04-24T00:24:10.395Z,97747.34
2023-04-24T00:26:37.199Z,97736.09
2023-04-24T00:29:03.987Z,97731.56
2023-04-24T00:31:30.885Z,97736.84
2023-04-24T00:33:57.692Z,97745.47
2023-04-24T00:36:24.475Z,97737.91
2023-04-24T00:38:51.294Z,97743.19
2023-04-24T00:41:18.214Z,97743.47
2023-04-24T00:43:44.967Z,97754.78
2023-04-24T00:46:12.368Z,97743.06
2023-04-24T00:48:40.705Z,97745.09
2023-04-24T00:51:07.969Z,97727.56
2023-04-24T00:53:34.847Z,97748.53
2023-04-24T00:56:01.789Z,97743.56
2023-04-24T00:58:28.868Z,97751.34
2023-04-24T01:00:56.607Z,97739.94
2023-04-24T01:03:24.101Z,97743.66
2023-04-24T01:05:51.345Z,97743.91
2023-04-24T01:08:18.211Z,97740.41
2023-04-24T01:10:45.374Z,97741.56
2023-04-24T01:13:12.441Z,97729.69
2023-04-24T01:15:39.419Z,97734.22
2023-04-24T01:18:29.007Z,97735.56
2023-04-24T01:20:59.843Z,97722.81
2023-04-24T01:23:29.113Z,97730.59
2023-04-24T01:25:56.019Z,97726.63
2023-04-24T01:28:23.351Z,97718.34
2023-04-24T01:30:50.306Z,97714.34
2023-04-24T01:33:17.114Z,97718.34
2023-04-24T01:35:44.223Z,97704.13
2023-04-24T01:38:11.178Z,97713.91
2023-04-24T01:40:37.944Z,97711.09
2023-04-24T01:43:05.668Z,97715.34
2023-04-24T01:45:32.962Z,97716.97
2023-04-24T01:48:00.235Z,97712.81
2023-04-24T01:50:27.475Z,97705.34
2023-04-24T01:52:54.212Z,97704.28
2023-04-24T01:55:20.995Z,97702.66
2023-04-24T01:57:47.992Z,97700.91
2023-04-24T02:00:15.709Z,97703.56
2023-04-24T02:02:45.622Z,97704.91
2023-04-24T02:05:14.314Z,97703.81
2023-04-24T02:07:41.279Z,97707.19
2023-04-24T02:10:08.643Z,97711.34
2023-04-24T02:12:35.745Z,97697.56
2023-04-24T02:15:02.598Z,97700.03
2023-04-24T02:17:29.549Z,97703.47
2023-04-24T02:19:56.418Z,97703.47
2023-04-24T02:22:23.316Z,97697.13
2023-04-24T02:24:50.330Z,97702.28
2023-04-24T02:27:17.629Z,97709.28
2023-04-24T02:29:44.729Z,97694.13
2023-04-24T02:32:13.436Z,97699.19
2023-04-24T02:34:40.404Z,97702.38
2023-04-24T02:37:07.203Z,97692.13
2023-04-24T02:39:34.203Z,97694.56
2023-04-24T02:42:01.564Z,97690.88
2023-04-24T02:44:28.249Z,97690.25
2023-04-24T02:46:54.937Z,97681.25
2023-04-24T02:49:21.688Z,97675.06
2023-04-24T02:51:48.440Z,97674.47
2023-04-24T02:54:15.771Z,97672.72
2023-04-24T02:56:42.510Z,97664.44
2023-04-24T02:59:09.245Z,97660.63
2023-04-24T03:01:36.735Z,97663.63
2023-04-24T03:04:03.978Z,97658.91
2023-04-24T03:06:32.598Z,97660.19
2023-04-24T03:08:59.466Z,97660.63
2023-04-24T03:11:26.538Z,97654.66
2023-04-24T03:13:53.726Z,97663.47
2023-04-24T03:16:20.667Z,97659.72
2023-04-24T03:18:47.586Z,97663.91
2023-04-24T03:21:14.354Z,97659.66
2023-04-24T03:23:41.051Z,97656.72
2023-04-24T03:26:07.971Z,97651.31
2023-04-24T03:28:34.846Z,97649.69
2023-04-24T03:31:01.672Z,97651.44
2023-04-24T03:33:28.543Z,97642.81
2023-04-24T03:35:55.809Z,97642.13
2023-04-24T03:38:22.592Z,97642.28
2023-04-24T03:40:49.431Z,97642.38
2023-04-24T03:43:16.272Z,97643.56
2023-04-24T03:45:43.146Z,97646.91
2023-04-24T03:48:10.160Z,97646.91
2023-04-24T03:50:37.066Z,97647.72
2023-04-24T03:53:04.097Z,97640.38
2023-04-24T03:55:31.068Z,97649.69
2023-04-24T03:57:57.780Z,97652.25
2023-04-24T04:00:24.589Z,97654.38
2023-04-24T04:02:51.774Z,97657.88
2023-04-24T04:05:18.667Z,97659.44
2023-04-24T04:07:45.784Z,97664.88
2023-04-24T04:10:12.640Z,97650.53
2023-04-24T04:12:39.631Z,97643.47
2023-04-24T04:15:08.118Z,97657.47
2023-04-24T04:17:35.096Z,97658.72
2023-04-24T04:20:02.363Z,97657.28
2023-04-24T04:22:29.171Z,97663.16
2023-04-24T04:24:56.220Z,97645.09
2023-04-24T04:27:23.422Z,97648.66
2023-04-24T04:29:50.350Z,97654.38
2023-04-24T04:32:17.727Z,97653.81
2023-04-24T04:34:46.885Z,97662.81
2023-04-24T04:37:14.130Z,97658.72
2023-04-24T04:39:41.475Z,97649.03
2023-04-24T04:42:08.453Z,97658.72
2023-04-24T04:44:37.457Z,97657.53
2023-04-24T04:47:07.935Z,97662.00
2023-04-24T04:49:35.915Z,97650.78
2023-04-24T04:52:02.848Z,97657.00
2023-04-24T04:54:29.864Z,97665.56
2023-04-24T04:56:57.277Z,97667.19
2023-04-24T04:59:24.290Z,97673.09
2023-04-24T05:01:52.053Z,97677.63
2023-04-24T05:04:19.941Z,97678.78
2023-04-24T05:06:48.453Z,97683.69
2023-04-24T05:09:16.467Z,97688.97
2023-04-24T05:11:43.404Z,97673.00
2023-04-24T05:14:12.717Z,97679.53
2023-04-24T05:16:42.333Z,97680.97
2023-04-24T05:19:10.907Z,97687.13
2023-04-24T05:21:38.989Z,97690.25
2023-04-24T05:24:06.226Z,97695.50
2023-04-24T05:26:33.238Z,97695.41
2023-04-24T05:29:00.350Z,97708.38
2023-04-24T05:31:27.442Z,97703.47
2023-04-24T05:33:54.672Z,97719.69
2023-04-24T05:36:22.058Z,97713.72
2023-04-24T05:38:53.554Z,97725.41
2023-04-24T05:41:24.188Z,97716.91
2023-04-24T05:43:53.110Z,97719.81
2023-04-24T05:46:22.880Z,97715.28
2023-04-24T05:48:49.830Z,97720.25
2023-04-24T05:51:16.723Z,97729.78
2023-04-24T05:53:45.468Z,97731.06
2023-04-24T05:56:14.317Z,97740.13
2023-04-24T05:58:43.505Z,97738.56
2023-04-24T06:01:11.052Z,97729.88
2023-04-24T06:03:38.173Z,97729.41
2023-04-24T06:06:05.333Z,97735.03
2023-04-24T06:08:32.107Z,97743.19
2023-04-24T06:10:59.225Z,97741.38
2023-04-24T06:13:26.430Z,97740.66
2023-04-24T06:15:54.422Z,97748.28
2023-04-24T06:18:21.162Z,97745.00
2023-04-24T06:20:49.245Z,97748.34
2023-04-24T06:23:16.570Z,97764.69
2023-04-24T06:25:43.858Z,97753.34
2023-04-24T06:28:11.834Z,97759.88
2023-04-24T06:30:38.934Z,97764.00
2023-04-24T06:33:19.494Z,97764.34
2023-04-24T06:35:47.674Z,97765.00
2023-04-24T06:38:14.866Z,97759.91
2023-04-24T06:40:44.996Z,97764.69
2023-04-24T06:43:12.581Z,97766.91
2023-04-24T06:45:41.254Z,97777.09
2023-04-24T06:48:08.262Z,97778.00
2023-04-24T06:50:36.232Z,97764.19
2023-04-24T06:53:03.060Z,97769.72
2023-04-24T06:55:30.097Z,97773.34
2023-04-24T06:57:57.409Z,97779.34
2023-04-24T07:00:26.103Z,97780.81
2023-04-24T07:02:54.161Z,97772.88
2023-04-24T07:05:21.489Z,97773.88
2023-04-24T07:07:48.872Z,97772.00
2023-04-24T07:10:16.127Z,97775.63
2023-04-24T07:12:43.208Z,97775.63
2023-04-24T07:15:11.083Z,97774.16
2023-04-24T07:17:39.846Z,97773.00
2023-04-24T07:20:09.328Z,97769.03
2023-04-24T07:22:36.206Z,97771.75
2023-04-24T07:25:03.891Z,97780.19
2023-04-24T07:27:30.996Z,97773.19
2023-04-24T07:29:57.833Z,97772.03
2023-04-24T07:32:25.016Z,97776.72
2023-04-24T07:34:51.861Z,97776.44
2023-04-24T07:37:18.883Z,97782.56
2023-04-24T07:39:46.777Z,97783.03
2023-04-24T07:42:13.757Z,97777.44
2023-04-24T07:44:40.954Z,97774.38
2023-04-24T07:47:07.902Z,97769.69
2023-04-24T07:49:36.377Z,97780.31
2023-04-24T07:52:03.821Z,97776.56
2023-04-24T07:54:31.163Z,97779.03
2023-04-24T07:56:58.179Z,97784.66
2023-04-24T07:59:25.874Z,97786.59
2023-04-24T08:01:52.599Z,97789.03
2023-04-24T08:04:20.037Z,97800.06
2023-04-24T08:06:50.042Z,97784.22
2023-04-24T08:09:16.927Z,97799.84
2023-04-24T08:11:45.035Z,97798.22
2023-04-24T08:14:13.828Z,97793.28
2023-04-24T08:16:40.659Z,97802.31
2023-04-24T08:19:07.849Z,97802.28
2023-04-24T08:21:35.447Z,97808.09
2023-04-24T08:24:06.583Z,97811.97
2023-04-24T08:26:33.747Z,97816.34
2023-04-24T08:29:00.628Z,97808.13
2023-04-24T08:31:28.070Z,97810.50
2023-04-24T08:33:55.542Z,97820.06
2023-04-24T08:36:23.827Z,97809.00
2023-04-24T08:38:54.195Z,97817.28
2023-04-24T08:41:21.280Z,97805.22
2023-04-24T08:43:48.276Z,97824.25
2023-04-24T08:46:17.947Z,97833.81
2023-04-24T08:48:44.986Z,97847.84
2023-04-24T08:51:12.199Z,97847.09
2023-04-24T08:53:39.327Z,97839.97
2023-04-24T08:56:06.565Z,97841.16
2023-04-24T08:58:33.655Z,97848.47
2023-04-24T09:01:00.845Z,97859.28
2023-04-24T09:03:29.810Z,97846.88
2023-04-24T09:05:57.269Z,97840.41
2023-04-24T09:08:26.920Z,97847.03
2023-04-24T09:10:54.180Z,97834.53
2023-04-24T09:13:22.189Z,97840.84
2023-04-24T09:15:48.997Z,97850.38
2023-04-24T09:18:15.965Z,97849.25
2023-04-24T09:21:04.210Z,97849.44
2023-04-24T09:23:32.734Z,97850.38
2023-04-24T09:26:06.326Z,97851.75
2023-04-24T09:28:36.385Z,97848.50
2023-04-24T09:31:12.743Z,97849.50
2023-04-24T09:33:39.800Z,97850.81
2023-04-24T09:36:07.669Z,97853.22
2023-04-24T09:38:36.952Z,97845.00
2023-04-24T09:41:07.573Z,97857.38
2023-04-24T09:43:35.786Z,97854.25
2023-04-24T09:46:11.199Z,97850.28
2023-04-24T09:48:39.009Z,97873.59
2023-04-24T09:51:12.526Z,97855.47
2023-04-24T09:53:47.429Z,97859.72
2023-04-24T09:56:14.817Z,97856.47
2023-04-24T09:58:41.862Z,97867.13
2023-04-24T10:01:09.391Z,97859.03
2023-04-24T10:03:38.019Z,97861.31
2023-04-24T10:06:10.455Z,97863.22
2023-04-24T10:08:38.944Z,97867.78
2023-04-24T10:11:07.001Z,97860.66
2023-04-24T10:13:34.525Z,97861.94
2023-04-24T10:16:02.775Z,97858.03
2023-04-24T10:18:30.256Z,97856.22
2023-04-24T10:20:57.901Z,97874.94
2023-04-24T10:23:26.749Z,97873.31
2023-04-24T10:25:53.886Z,97868.78
2023-04-24T10:28:22.185Z,97882.16
2023-04-24T10:30:49.169Z,97879.13
2023-04-24T10:33:17.967Z,97880.56
2023-04-24T10:35:49.143Z,97869.56
2023-04-24T10:38:19.744Z,97887.69
2023-04-24T10:40:46.630Z,97876.31
2023-04-24T10:43:18.987Z,97875.88
2023-04-24T10:46:06.201Z,97881.53
2023-04-24T10:48:33.886Z,97902.72
2023-04-24T10:51:01.395Z,97872.25
2023-04-24T10:53:30.707Z,97890.09
2023-04-24T10:56:05.848Z,97892.47
2023-04-24T10:59:00.391Z,97880.00
2023-04-24T11:01:29.552Z,97890.53
2023-04-24T11:04:04.682Z,97883.03
2023-04-24T11:06:33.350Z,97876.56
2023-04-24T11:09:08.827Z,97870.97
2023-04-24T11:11:38.933Z,97868.47
2023-04-24T11:14:08.034Z,97872.31
2023-04-24T11:16:54.685Z,97862.78
2023-04-24T11:19:23.502Z,97875.19
2023-04-24T11:22:04.191Z,97876.38
2023-04-24T11:24:42.063Z,97884.56
2023-04-24T11:27:21.155Z,97892.94
2023-04-24T11:29:50.494Z,97898.84
2023-04-24T11:32:51.088Z,97923.41
2023-04-24T11:35:22.772Z,97918.13
2023-04-24T11:40:24.361Z,97902.44
2023-04-24T11:42:52.621Z,97894.38
2023-04-24T11:45:22.558Z,97912.06
2023-04-24T11:47:49.837Z,97904.50
2023-04-24T11:50:18.705Z,97916.56
2023-04-24T11:52:47.791Z,97928.81
2023-04-24T11:55:32.771Z,97927.84
2023-04-24T11:58:01.387Z,97935.22
2023-04-24T12:00:30.150Z,97939.03
2023-04-24T12:03:10.186Z,97929.59
2023-04-24T12:05:37.934Z,97937.72
2023-04-24T12:08:06.400Z,97936.34
2023-04-24T12:10:34.659Z,97949.97
2023-04-24T12:13:02.099Z,97966.22
2023-04-24T12:15:29.357Z,97985.09
2023-04-24T12:17:57.678Z,98002.19
2023-04-24T12:20:29.887Z,97994.22
2023-04-24T12:22:58.452Z,97980.41
2023-04-24T12:25:34.934Z,97987.34
2023-04-24T12:28:05.063Z,97983.06
2023-04-24T12:30:34.627Z,97983.00
2023-04-24T12:33:02.171Z,97991.84
2023-04-24T12:35:30.413Z,97986.75
2023-04-24T12:37:57.269Z,97981.16
2023-04-24T12:40:27.240Z,97985.25
2023-04-24T12:42:55.242Z,97993.66
2023-04-24T12:45:25.218Z,97979.97
2023-04-24T12:47:52.149Z,97989.38
2023-04-24T12:50:19.160Z,97998.25
2023-04-24T12:52:46.563Z,98004.53
2023-04-24T12:55:13.576Z,98006.63
2023-04-24T12:57:41.369Z,98016.38
2023-04-24T13:00:09.610Z,98019.97
2023-04-24T13:02:36.830Z,98017.69
2023-04-24T13:05:04.329Z,98024.63
2023-04-24T13:07:31.291Z,98031.97
2023-04-24T13:09:59.379Z,98030.50
2023-04-24T13:12:26.874Z,98032.69
2023-04-24T13:14:54.830Z,98027.09
2023-04-24T13:17:22.043Z,98034.84
2023-04-24T13:19:51.486Z,98031.16
2023-04-24T13:22:20.125Z,98037.25
2023-04-24T13:24:47.167Z,98033.94
2023-04-24T13:27:14.009Z,98039.94
2023-04-24T13:29:40.875Z,98041.22
2023-04-24T13:32:07.997Z,98040.50
2023-04-24T13:34:35.947Z,98038.84
2023-04-24T13:37:05.431Z,98039.03
2023-04-24T13:39:33.263Z,98051.72
2023-04-24T13:42:01.958Z,98049.69
2023-04-24T13:44:30.046Z,98045.19
2023-04-24T13:46:58.636Z,98051.63
2023-04-24T13:49:26.821Z,98045.69
2023-04-24T13:51:54.940Z,98051.31
2023-04-24T13:54:22.178Z,98038.38
2023-04-24T13:56:48.994Z,98044.53
2023-04-24T13:59:16.155Z,98054.31
2023-04-24T14:01:43.524Z,98047.13
2023-04-24T14:04:10.488Z,98041.47
2023-04-24T14:06:37.473Z,98038.63
2023-04-24T14:09:05.772Z,98058.44
2023-04-24T14:11:32.712Z,98035.63
2023-04-24T14:13:59.545Z,98045.78
2023-04-24T14:16:26.400Z,98048.03
2023-04-24T14:18:53.428Z,98055.66
2023-04-24T14:21:20.382Z,98052.25
2023-04-24T14:23:47.494Z,98062.56
2023-04-24T14:26:15.089Z,98058.94
2023-04-24T14:28:44.005Z,98056.94
2023-04-24T14:31:12.892Z,98065.75
2023-04-24T14:33:39.689Z,98056.06
2023-04-24T14:36:06.977Z,98060.13
2023-04-24T14:38:34.024Z,98064.25
2023-04-24T14:43:31.770Z,98063.84
2023-04-24T14:45:58.995Z,98058.00
2023-04-24T14:48:26.138Z,98065.97
2023-04-24T14:50:52.915Z,98076.09
2023-04-24T14:53:20.109Z,98079.34
2023-04-24T14:55:47.064Z,98073.78
2023-04-24T14:58:14.158Z,98074.75
2023-04-24T15:00:41.236Z,98076.66
2023-04-24T15:03:08.810Z,98090.72
2023-04-24T15:05:37.552Z,98086.44
2023-04-24T15:08:05.174Z,98094.16
2023-04-24T15:10:32.069Z,98095.56
2023-04-24T15:12:59.542Z,98100.94
2023-04-24T15:15:26.764Z,98097.78
2023-04-24T15:17:54.137Z,98094.09
2023-04-24T15:20:21.685Z,98096.47
2023-04-24T15:22:48.443Z,98098.06
2023-04-24T15:25:15.523Z,98103.63
2023-04-24T15:27:47.179Z,98112.88
2023-04-24T15:30:14.865Z,98114.59
2023-04-24T15:32:41.863Z,98105.47
2023-04-24T15:35:10.600Z,98113.38
2023-04-24T15:37:39.035Z,98122.72
2023-04-24T15:40:08.523Z,98121.63
2023-04-24T15:42:36.398Z,98117.03
2023-04-24T15:45:04.704Z,98118.00
2023-04-24T15:47:32.076Z,98111.44
2023-04-24T15:49:59.034Z,98113.94
2023-04-24T15:52:26.145Z,98115.22
2023-04-24T15:54:53.259Z,98124.88
2023-04-24T15:57:20.701Z,98127.72
2023-04-24T15:59:47.783Z,98125.47
2023-04-24T16:02:19.686Z,98129.03
2023-04-24T16:04:51.442Z,98130.53
2023-04-24T16:07:18.589Z,98125.28
2023-04-24T16:09:46.069Z,98138.63
2023-04-24T16:12:13.017Z,98139.63
2023-04-24T16:14:39.961Z,98133.81
2023-04-24T16:17:06.920Z,98131.09
2023-04-24T16:19:35.223Z,98124.44
2023-04-24T16:22:03.431Z,98128.13
2023-04-24T16:24:30.734Z,98131.63
2023-04-24T16:26:58.031Z,98138.28
2023-04-24T16:29:24.919Z,98140.47
2023-04-24T16:31:52.261Z,98137.69
2023-04-24T16:34:19.466Z,98138.59
2023-04-24T16:36:46.508Z,98132.81
2023-04-24T16:39:13.703Z,98139.22
2023-04-24T16:41:41.127Z,98146.69
2023-04-24T16:44:08.179Z,98157.34
2023-04-24T16:46:35.220Z,98150.13
2023-04-24T16:49:02.069Z,98155.69
2023-04-24T16:51:29.293Z,98162.59
2023-04-24T16:53:56.304Z,98158.31
2023-04-24T16:56:23.318Z,98151.44
2023-04-24T16:58:51.231Z,98147.41
2023-04-24T17:01:18.255Z,98155.38
2023-04-24T17:03:45.465Z,98156.88
2023-04-24T17:06:12.951Z,98158.13
2023-04-24T17:08:39.831Z,98160.44
2023-04-24T17:11:06.892Z,98164.06
2023-04-24T17:13:33.701Z,98154.44
2023-04-24T17:16:00.715Z,98155.25
2023-04-24T17:18:27.644Z,98157.56
2023-04-24T17:20:54.460Z,98165.13
2023-04-24T17:23:21.468Z,98165.78
2023-04-24T17:25:48.203Z,98179.28
2023-04-24T17:28:24.674Z,98171.16
2023-04-24T17:30:51.907Z,98163.78
2023-04-24T17:33:18.620Z,98172.97
2023-04-24T17:35:45.463Z,98176.09
2023-04-24T17:38:12.578Z,98172.16
2023-04-24T17:40:39.745Z,98171.19
2023-04-24T17:43:06.575Z,98174.66
2023-04-24T17:45:33.681Z,98176.75
2023-04-24T17:48:00.730Z,98188.91
2023-04-24T17:50:27.995Z,98188.75
2023-04-24T17:52:54.887Z,98181.22
2023-04-24T17:55:21.876Z,98191.38
2023-04-24T17:57:48.834Z,98188.09
2023-04-24T18:00:16.509Z,98184.34
2023-04-24T18:02:43.461Z,98183.69
2023-04-24T18:05:10.436Z,98188.59
2023-04-24T18:07:37.491Z,98187.28
2023-04-24T18:10:04.522Z,98200.09
2023-04-24T18:12:31.605Z,98193.53
2023-04-24T18:15:13.046Z,98198.97
2023-04-24T18:17:41.332Z,98191.72
2023-04-24T18:20:08.875Z,98202.09
2023-04-24T18:22:35.694Z,98196.16
2023-04-24T18:25:02.750Z,98198.81
2023-04-24T18:27:31.432Z,98209.97
2023-04-24T18:29:59.647Z,98218.31
2023-04-24T18:32:27.526Z,98215.22
2023-04-24T18:34:54.459Z,98228.50
2023-04-24T18:37:21.721Z,98223.72
2023-04-24T18:39:51.063Z,98234.41
2023-04-24T18:42:18.775Z,98237.38
2023-04-24T18:44:45.740Z,98235.88
2023-04-24T18:47:13.017Z,98238.66
2023-04-24T18:49:39.897Z,98236.19
2023-04-24T18:52:06.722Z,98248.34
2023-04-24T18:54:33.677Z,98246.88
2023-04-24T18:57:01.979Z,98247.03
2023-04-24T18:59:28.756Z,98255.41
2023-04-24T19:01:55.644Z,98257.84
2023-04-24T19:04:22.655Z,98256.50
2023-04-24T19:06:49.785Z,98260.28
2023-04-24T19:09:16.867Z,98274.25
2023-04-24T19:11:45.035Z,98280.19
2023-04-24T19:14:12.161Z,98283.13
2023-04-24T19:16:39.411Z,98281.63
2023-04-24T19:19:06.277Z,98287.69
2023-04-24T19:21:33.708Z,98289.34
2023-04-24T19:24:00.685Z,98296.84
2023-04-24T19:26:28.658Z,98285.19
2023-04-24T19:28:58.296Z,98291.56
2023-04-24T19:31:25.841Z,98291.84
2023-04-24T19:33:52.934Z,98298.88
2023-04-24T19:36:19.928Z,98292.78
2023-04-24T19:38:47.602Z,98299.59
2023-04-24T19:41:14.485Z,98294.69
2023-04-24T19:43:41.193Z,98290.38
2023-04-24T19:46:08.354Z,98297.41
2023-04-24T19:48:35.144Z,98299.22
2023-04-24T19:51:03.148Z,98295.19
2023-04-24T19:53:30.154Z,98289.25
2023-04-24T19:55:57.380Z,98295.78
2023-04-24T19:58:24.600Z,98290.03
2023-04-24T20:00:51.638Z,98288.53
2023-04-24T20:03:31.497Z,98286.53
2023-04-24T20:06:00.262Z,98286.91
2023-04-24T20:08:27.185Z,98288.06
2023-04-24T20:10:54.821Z,98282.81
2023-04-24T20:13:21.623Z,98283.56
2023-04-24T20:15:48.636Z,98284.41
2023-04-24T20:18:15.533Z,98284.19
2023-04-24T20:20:42.518Z,98277.44
2023-04-24T20:23:09.225Z,98282.41
2023-04-24T20:25:36.572Z,98278.88
2023-04-24T20:28:03.589Z,98279.19
2023-04-24T20:30:31.725Z,98272.53
2023-04-24T20:32:59.335Z,98272.72
2023-04-24T20:35:26.328Z,98274.22
2023-04-24T20:37:54.004Z,98273.16
2023-04-24T20:40:20.892Z,98277.75
2023-04-24T20:42:47.692Z,98277.97
2023-04-24T20:45:14.579Z,98286.44
2023-04-24T20:47:41.494Z,98280.25
2023-04-24T20:50:09.225Z,98285.53
2023-04-24T20:52:36.056Z,98288.31
2023-04-24T20:55:04.234Z,98288.63
2023-04-24T20:57:31.350Z,98283.00
2023-04-24T20:59:58.171Z,98273.19
2023-04-24T21:02:25.068Z,98285.41
2023-04-24T21:04:51.999Z,98278.28
2023-04-24T21:07:18.891Z,98280.84
2023-04-24T21:09:45.953Z,98282.03
2023-04-24T21:12:12.796Z,98278.97
2023-04-24T21:15:11.720Z,98275.66
2023-04-24T21:17:45.314Z,98269.84
2023-04-24T21:20:12.505Z,98267.66
2023-04-24T21:22:39.267Z,98270.75
2023-04-24T21:25:06.929Z,98271.03
2023-04-24T21:27:33.781Z,98269.16
2023-04-24T21:30:00.621Z,98259.72
2023-04-24T21:32:27.384Z,98258.47
2023-04-24T21:34:54.226Z,98259.78
2023-04-24T21:37:21.122Z,98262.72
2023-04-24T21:39:47.846Z,98255.16
2023-04-24T21:42:14.549Z,98269.22
2023-04-24T21:44:41.343Z,98259.63
2023-04-24T21:47:09.304Z,98260.59
2023-04-24T21:49:36.269Z,98268.16
2023-04-24T21:52:03.471Z,98268.84
2023-04-24T21:54:30.193Z,98263.22
2023-04-24T21:56:56.990Z,98264.44
2023-04-24T21:59:24.030Z,98264.16
2023-04-24T22:01:50.895Z,98266.31
2023-04-24T22:04:17.999Z,98263.28
2023-04-24T22:06:45.111Z,98258.41
2023-04-24T22:09:12.035Z,98259.25
2023-04-24T22:11:39.114Z,98251.66
2023-04-24T22:14:07.878Z,98250.06
2023-04-24T22:16:34.742Z,98246.78
2023-04-24T22:19:01.610Z,98244.63
2023-04-24T22:21:28.551Z,98250.13
2023-04-24T22:23:55.423Z,98243.44
2023-04-24T22:26:22.668Z,98243.38
2023-04-24T22:28:49.502Z,98245.16
2023-04-24T22:31:16.607Z,98243.72
2023-04-24T22:33:49.941Z,98248.56
2023-04-24T22:36:16.952Z,98249.69
2023-04-24T22:38:44.079Z,98248.31
2023-04-24T22:41:11.122Z,98249.94
2023-04-24T22:43:38.846Z,98250.78
2023-04-24T22:46:05.759Z,98247.47
2023-04-24T22:48:33.276Z,98241.53
2023-04-24T22:51:00.218Z,98242.63
2023-04-24T22:53:28.032Z,98241.53
2023-04-24T22:55:56.626Z,98241.47
2023-04-24T22:58:24.648Z,98236.41
2023-04-24T23:00:51.857Z,98238.91
2023-04-24T23:03:19.025Z,98236.31
2023-04-24T23:05:45.987Z,98240.28
2023-04-24T23:08:12.771Z,98244.00
2023-04-24T23:10:39.794Z,98243.03
2023-04-24T23:13:06.670Z,98247.72
2023-04-24T23:15:33.436Z,98245.13
2023-04-24T23:18:00.346Z,98250.06
2023-04-24T23:20:27.403Z,98250.19
2023-04-24T23:22:54.497Z,98254.47
2023-04-24T23:25:21.418Z,98247.59
2023-04-24T23:27:48.259Z,98243.59
2023-04-24T23:30:15.287Z,98240.81
2023-04-24T23:32:44.463Z,98241.53
2023-04-24T23:35:11.917Z,98238.25
2023-04-24T23:37:38.793Z,98237.28
2023-04-24T23:40:07.829Z,98233.28
2023-04-24T23:42:35.043Z,98231.78
2023-04-24T23:45:01.781Z,98233.72
2023-04-24T23:47:28.520Z,98228.50
2023-04-24T23:49:55.384Z,98226.00
2023-04-24T23:52:22.283Z,98228.06
2023-04-24T23:54:49.155Z,98226.31
2023-04-24T23:57:15.891Z,98234.53
2023-04-24T23:59:42.602Z,98231.41
